createdAt,value
2023-02-12T00:00:31.196Z,5.90
2023-02-12T00:03:01.278Z,5.90
2023-02-12T00:05:34.366Z,5.90
2023-02-12T00:08:07.765Z,6.00
2023-02-12T00:10:43.074Z,6.00
2023-02-12T00:13:15.015Z,6.00
2023-02-12T00:15:46.573Z,6.00
2023-02-12T00:18:16.872Z,6.00
2023-02-12T00:20:49.486Z,6.00
2023-02-12T00:23:19.644Z,6.10
2023-02-12T00:25:49.756Z,6.10
2023-02-12T00:28:19.945Z,6.00
2023-02-12T00:30:52.577Z,6.00
2023-02-12T00:33:22.674Z,5.90
2023-02-12T00:36:01.407Z,5.90
2023-02-12T00:38:31.597Z,5.90
2023-02-12T00:41:01.667Z,5.90
2023-02-12T00:43:31.738Z,5.90
2023-02-12T00:46:01.880Z,5.80
2023-02-12T00:48:32.101Z,5.90
2023-02-12T00:51:05.251Z,5.90
2023-02-12T00:53:36.945Z,5.90
2023-02-12T00:56:07.797Z,6.00
2023-02-12T00:58:38.067Z,6.10
2023-02-12T01:01:08.505Z,6.10
2023-02-12T01:03:41.709Z,6.10
2023-02-12T01:06:21.815Z,6.10
2023-02-12T01:08:54.299Z,6.10
2023-02-12T01:11:24.605Z,6.10
2023-02-12T01:13:54.732Z,6.10
2023-02-12T01:16:27.608Z,6.00
2023-02-12T01:18:58.393Z,6.00
2023-02-12T01:21:34.214Z,6.10
2023-02-12T01:24:05.386Z,6.20
2023-02-12T01:26:36.268Z,6.10
2023-02-12T01:29:12.508Z,6.10
2023-02-12T01:31:43.374Z,6.10
2023-02-12T01:34:15.309Z,6.00
2023-02-12T01:36:47.949Z,6.00
2023-02-12T01:39:18.092Z,6.00
2023-02-12T01:41:48.966Z,6.00
2023-02-12T01:44:22.463Z,6.10
2023-02-12T01:46:59.036Z,6.10
2023-02-12T01:49:36.035Z,6.10
2023-02-12T01:52:16.582Z,6.20
2023-02-12T01:54:49.435Z,6.20
2023-02-12T01:57:21.406Z,6.20
2023-02-12T01:59:56.170Z,6.10
2023-02-12T02:02:26.904Z,6.00
2023-02-12T02:05:04.338Z,6.00
2023-02-12T02:07:37.265Z,6.00
2023-02-12T02:10:09.010Z,6.00
2023-02-12T02:12:52.885Z,6.10
2023-02-12T02:15:23.370Z,6.00
2023-02-12T02:18:00.129Z,6.10
2023-02-12T02:21:20.368Z,6.20
2023-02-12T02:24:51.115Z,6.20
2023-02-12T02:27:43.406Z,6.30
2023-02-12T02:30:37.353Z,6.30
2023-02-12T02:33:40.241Z,6.30
2023-02-12T02:36:50.820Z,6.30
2023-02-12T02:39:41.493Z,6.30
2023-02-12T02:42:20.640Z,6.30
2023-02-12T02:44:57.653Z,6.30
2023-02-12T02:47:40.947Z,6.20
2023-02-12T02:50:17.524Z,6.10
2023-02-12T02:52:55.686Z,6.10
2023-02-12T02:55:31.508Z,6.20
2023-02-12T02:58:08.664Z,6.20
2023-02-12T03:00:47.349Z,6.20
2023-02-12T03:03:31.350Z,6.20
2023-02-12T03:06:08.221Z,6.20
2023-02-12T03:08:44.054Z,6.20
2023-02-12T03:11:20.998Z,6.20
2023-02-12T03:14:00.506Z,6.20
2023-02-12T03:16:34.502Z,6.20
2023-02-12T03:19:14.884Z,6.10
2023-02-12T03:21:51.438Z,6.00
2023-02-12T03:24:31.754Z,6.10
2023-02-12T03:27:11.697Z,6.10
2023-02-12T03:29:42.211Z,6.10
2023-02-12T03:32:31.818Z,6.10
2023-02-12T03:35:28.060Z,6.10
2023-02-12T03:38:10.458Z,6.10
2023-02-12T03:40:48.404Z,6.10
2023-02-12T03:43:30.367Z,6.10
2023-02-12T03:46:09.203Z,6.10
2023-02-12T03:48:54.827Z,6.10
2023-02-12T03:51:35.686Z,6.10
2023-02-12T03:54:10.621Z,6.00
2023-02-12T03:56:49.210Z,6.00
2023-02-12T03:59:21.344Z,6.00
2023-02-12T04:01:56.901Z,6.00
2023-02-12T04:04:29.260Z,6.00
2023-02-12T04:07:05.629Z,6.00
2023-02-12T04:09:35.962Z,6.00
2023-02-12T04:12:36.424Z,6.00
2023-02-12T04:15:27.384Z,6.10
2023-02-12T04:18:10.497Z,6.10
2023-02-12T04:20:56.080Z,6.20
2023-02-12T04:23:48.938Z,6.20
2023-02-12T04:26:32.231Z,6.20
2023-02-12T04:29:20.552Z,6.30
2023-02-12T04:31:59.061Z,6.30
2023-02-12T04:34:41.397Z,6.30
2023-02-12T04:37:19.794Z,6.30
2023-02-12T04:39:56.190Z,6.20
2023-02-12T04:42:26.471Z,6.20
2023-02-12T04:44:56.623Z,6.10
2023-02-12T04:47:26.669Z,6.10
2023-02-12T04:49:57.011Z,6.00
2023-02-12T04:52:29.077Z,6.00
2023-02-12T04:55:01.945Z,5.90
2023-02-12T04:57:32.167Z,5.90
2023-02-12T05:00:05.842Z,5.90
2023-02-12T05:02:39.395Z,5.90
2023-02-12T05:05:10.517Z,5.90
2023-02-12T05:07:42.992Z,6.00
2023-02-12T05:10:16.039Z,6.00
2023-02-12T05:12:48.605Z,6.00
2023-02-12T05:15:18.898Z,6.00
2023-02-12T05:17:48.981Z,6.00
2023-02-12T05:20:19.603Z,6.00
2023-02-12T05:22:53.987Z,6.00
2023-02-12T05:25:26.755Z,6.10
2023-02-12T05:27:57.455Z,6.00
2023-02-12T05:30:27.618Z,6.10
2023-02-12T05:32:57.743Z,6.30
2023-02-12T05:35:28.993Z,6.40
2023-02-12T05:37:59.474Z,6.30
2023-02-12T05:40:32.196Z,6.30
2023-02-12T05:43:02.275Z,6.20
2023-02-12T05:45:32.586Z,6.00
2023-02-12T05:48:03.067Z,6.00
2023-02-12T05:50:33.183Z,6.00
2023-02-12T05:53:03.412Z,6.00
2023-02-12T05:55:36.066Z,6.00
2023-02-12T05:58:06.146Z,6.00
2023-02-12T06:00:36.410Z,5.90
2023-02-12T06:03:06.676Z,6.00
2023-02-12T06:05:36.759Z,6.00
2023-02-12T06:08:09.744Z,6.10
2023-02-12T06:10:52.154Z,6.10
2023-02-12T06:13:22.227Z,6.00
2023-02-12T06:15:52.291Z,6.10
2023-02-12T06:18:22.362Z,6.00
2023-02-12T06:20:57.252Z,6.10
2023-02-12T06:23:30.364Z,6.00
2023-02-12T06:26:02.996Z,6.10
2023-02-12T06:28:33.147Z,6.10
2023-02-12T06:31:03.494Z,6.20
2023-02-12T06:33:36.094Z,6.20
2023-02-12T06:36:07.917Z,6.20
2023-02-12T06:38:38.302Z,6.20
2023-02-12T06:41:11.096Z,6.20
2023-02-12T06:43:41.327Z,6.20
2023-02-12T06:46:12.705Z,6.30
2023-02-12T06:48:43.090Z,6.30
2023-02-12T06:51:17.497Z,6.30
2023-02-12T06:53:48.547Z,6.30
2023-02-12T06:56:23.549Z,6.30
2023-02-12T06:58:59.591Z,6.40
2023-02-12T07:01:32.666Z,6.40
2023-02-12T07:04:05.542Z,6.30
2023-02-12T07:06:38.809Z,6.30
2023-02-12T07:09:09.011Z,6.30
2023-02-12T07:11:41.921Z,6.20
2023-02-12T07:14:18.714Z,6.30
2023-02-12T07:16:48.851Z,6.30
2023-02-12T07:19:19.258Z,6.40
2023-02-12T07:21:49.426Z,6.40
2023-02-12T07:24:20.519Z,6.40
2023-02-12T07:26:53.247Z,6.50
2023-02-12T07:29:23.368Z,6.60
2023-02-12T07:31:53.519Z,6.60
2023-02-12T07:34:25.769Z,6.70
2023-02-12T07:36:55.901Z,6.70
2023-02-12T07:39:27.283Z,6.80
2023-02-12T07:42:00.354Z,6.80
2023-02-12T07:44:31.502Z,6.80
2023-02-12T07:47:03.155Z,6.80
2023-02-12T07:49:33.183Z,6.80
2023-02-12T07:52:03.334Z,6.90
2023-02-12T07:54:33.390Z,6.90
2023-02-12T07:57:06.070Z,6.90
2023-02-12T07:59:38.215Z,6.90
2023-02-12T08:02:08.277Z,6.90
2023-02-12T08:04:38.447Z,7.00
2023-02-12T08:07:08.606Z,7.00
2023-02-12T08:09:40.231Z,7.10
2023-02-12T08:12:13.164Z,7.20
2023-02-12T08:14:43.766Z,7.30
2023-02-12T08:17:16.797Z,7.30
2023-02-12T08:19:46.821Z,7.30
2023-02-12T08:22:16.939Z,7.30
2023-02-12T08:24:46.998Z,7.40
2023-02-12T08:27:19.709Z,7.50
2023-02-12T08:29:49.964Z,7.50
2023-02-12T08:32:20.048Z,7.50
2023-02-12T08:34:50.114Z,7.50
2023-02-12T08:37:20.198Z,7.60
2023-02-12T08:39:52.202Z,7.70
2023-02-12T08:42:26.328Z,7.70
2023-02-12T08:44:56.368Z,7.80
2023-02-12T08:47:26.461Z,7.90
2023-02-12T08:49:56.517Z,8.00
2023-02-12T08:52:26.607Z,8.00
2023-02-12T08:54:56.808Z,8.00
2023-02-12T08:57:29.496Z,8.10
2023-02-12T08:59:59.534Z,8.20
2023-02-12T09:02:29.649Z,8.10
2023-02-12T09:04:59.734Z,8.20
2023-02-12T09:07:29.898Z,8.30
2023-02-12T09:09:59.927Z,8.30
2023-02-12T09:12:32.643Z,8.40
2023-02-12T09:15:02.902Z,8.50
2023-02-12T09:17:33.452Z,8.50
2023-02-12T09:20:06.487Z,8.50
2023-02-12T09:22:38.276Z,8.60
2023-02-12T09:25:11.322Z,8.60
2023-02-12T09:27:44.031Z,9.00
2023-02-12T09:30:17.046Z,9.10
2023-02-12T09:32:47.184Z,9.40
2023-02-12T09:35:18.580Z,9.80
2023-02-12T09:37:48.698Z,10.00
2023-02-12T09:40:24.809Z,10.20
2023-02-12T09:43:21.650Z,10.30
2023-02-12T09:46:07.538Z,10.30
2023-02-12T09:49:03.474Z,10.40
2023-02-12T09:51:35.095Z,10.40
2023-02-12T09:54:13.504Z,10.30
2023-02-12T09:56:49.401Z,10.60
2023-02-12T09:59:38.214Z,10.60
2023-02-12T10:02:17.212Z,10.80
2023-02-12T10:05:00.617Z,10.90
2023-02-12T10:07:56.473Z,11.10
2023-02-12T10:10:47.401Z,10.90
2023-02-12T10:13:34.354Z,11.10
2023-02-12T10:16:17.881Z,10.80
2023-02-12T10:19:23.241Z,10.60
2023-02-12T10:22:13.534Z,10.50
2023-02-12T10:25:05.974Z,10.60
2023-02-12T10:27:44.061Z,10.60
2023-02-12T10:30:26.716Z,10.40
2023-02-12T10:33:09.771Z,10.40
2023-02-12T10:35:47.054Z,10.60
2023-02-12T10:38:26.484Z,10.70
2023-02-12T10:41:05.350Z,10.80
2023-02-12T10:43:36.686Z,10.90
2023-02-12T10:46:08.140Z,10.80
2023-02-12T10:48:49.781Z,11.00
2023-02-12T10:51:49.494Z,11.00
2023-02-12T10:54:44.737Z,10.80
2023-02-12T10:57:20.969Z,10.80
2023-02-12T10:59:57.332Z,10.70
2023-02-12T11:02:32.476Z,10.50
2023-02-12T11:05:27.878Z,10.40
2023-02-12T11:07:58.330Z,10.70
2023-02-12T11:10:37.343Z,11.00
2023-02-12T11:13:08.495Z,11.10
2023-02-12T11:15:51.123Z,11.20
2023-02-12T11:18:28.313Z,11.20
2023-02-12T11:21:04.853Z,11.50
2023-02-12T11:23:38.407Z,11.60
2023-02-12T11:26:26.292Z,11.70
2023-02-12T11:28:59.593Z,11.80
2023-02-12T11:31:32.484Z,11.80
2023-02-12T11:34:19.858Z,11.70
2023-02-12T11:36:56.094Z,11.60
2023-02-12T11:39:32.517Z,11.50
2023-02-12T11:42:17.122Z,11.30
2023-02-12T11:44:55.363Z,11.40
2023-02-12T11:47:30.018Z,11.50
2023-02-12T11:50:11.839Z,11.60
2023-02-12T11:52:45.103Z,11.70
2023-02-12T11:55:28.108Z,11.70
2023-02-12T11:58:08.250Z,12.00
2023-02-12T12:00:48.604Z,12.10
2023-02-12T12:03:27.924Z,12.10
2023-02-12T12:06:07.718Z,12.10
2023-02-12T12:08:48.346Z,12.10
2023-02-12T12:11:24.594Z,12.10
2023-02-12T12:14:04.384Z,12.00
2023-02-12T12:16:53.489Z,11.90
2023-02-12T12:19:51.381Z,11.90
2023-02-12T12:22:38.233Z,11.90
2023-02-12T12:25:23.205Z,11.90
2023-02-12T12:28:13.623Z,11.80
2023-02-12T12:31:06.044Z,11.90
2023-02-12T12:33:44.285Z,11.90
2023-02-12T12:37:17.459Z,12.00
2023-02-12T12:40:19.434Z,12.00
2023-02-12T12:43:23.276Z,11.90
2023-02-12T12:46:27.921Z,11.70
2023-02-12T12:49:50.827Z,11.60
2023-02-12T12:52:48.285Z,11.50
2023-02-12T12:55:59.569Z,11.50
2023-02-12T12:58:55.535Z,11.60
2023-02-12T13:01:57.484Z,11.70
2023-02-12T13:05:07.026Z,11.80
2023-02-12T13:07:54.076Z,11.60
2023-02-12T13:10:39.513Z,11.50
2023-02-12T13:13:23.330Z,11.50
2023-02-12T13:16:12.160Z,11.40
2023-02-12T13:18:59.004Z,11.30
2023-02-12T13:21:44.381Z,11.30
2023-02-12T13:24:30.680Z,11.50
2023-02-12T13:27:05.069Z,11.60
2023-02-12T13:29:43.151Z,11.70
2023-02-12T13:32:26.868Z,11.70
2023-02-12T13:35:00.463Z,11.60
2023-02-12T13:37:45.269Z,11.70
2023-02-12T13:40:21.825Z,11.80
2023-02-12T13:43:02.524Z,11.70
2023-02-12T13:46:04.760Z,11.60
2023-02-12T13:48:56.023Z,11.40
2023-02-12T13:51:42.385Z,11.30
2023-02-12T13:54:48.813Z,10.90
2023-02-12T13:57:22.381Z,10.80
2023-02-12T13:59:53.935Z,10.80
2023-02-12T14:02:47.941Z,10.70
2023-02-12T14:05:36.327Z,10.90
2023-02-12T14:08:28.703Z,11.10
2023-02-12T14:11:10.547Z,11.10
2023-02-12T14:13:56.601Z,11.20
2023-02-12T14:16:43.461Z,11.20
2023-02-12T14:19:45.623Z,11.20
2023-02-12T14:23:14.570Z,11.10
2023-02-12T14:25:52.067Z,11.00
2023-02-12T14:28:34.397Z,10.90
2023-02-12T14:31:35.618Z,10.80
2023-02-12T14:34:44.750Z,10.80
2023-02-12T14:37:39.324Z,10.80
2023-02-12T14:40:42.273Z,10.80
2023-02-12T14:43:56.249Z,10.90
2023-02-12T14:46:50.095Z,11.00
2023-02-12T14:49:27.766Z,11.00
2023-02-12T14:52:05.068Z,11.00
2023-02-12T14:54:44.135Z,11.00
2023-02-12T14:57:29.335Z,11.00
2023-02-12T15:00:21.026Z,11.00
2023-02-12T15:02:58.479Z,11.00
2023-02-12T15:05:34.185Z,10.90
2023-02-12T15:08:12.105Z,10.90
2023-02-12T15:10:55.450Z,10.80
2023-02-12T15:13:34.220Z,10.90
2023-02-12T15:16:16.065Z,10.80
2023-02-12T15:18:57.647Z,10.80
2023-02-12T15:21:31.608Z,10.80
2023-02-12T15:24:08.504Z,10.70
2023-02-12T15:26:47.737Z,10.70
2023-02-12T15:29:32.635Z,10.70
2023-02-12T15:32:08.027Z,10.60
2023-02-12T15:34:43.487Z,10.50
2023-02-12T15:37:25.365Z,10.50
2023-02-12T15:40:03.740Z,10.40
2023-02-12T15:42:42.775Z,10.40
2023-02-12T15:45:27.538Z,10.40
2023-02-12T15:48:13.537Z,10.30
2023-02-12T15:50:59.730Z,10.10
2023-02-12T15:53:33.153Z,10.10
2023-02-12T15:56:05.564Z,10.10
2023-02-12T15:58:46.180Z,10.00
2023-02-12T16:01:25.768Z,10.00
2023-02-12T16:03:59.852Z,9.90
2023-02-12T16:06:35.448Z,9.90
2023-02-12T16:09:10.785Z,9.80
2023-02-12T16:11:41.415Z,9.90
2023-02-12T16:14:26.348Z,9.80
2023-02-12T16:17:01.396Z,9.80
2023-02-12T16:19:37.113Z,9.70
2023-02-12T16:22:19.956Z,9.70
2023-02-12T16:24:54.507Z,9.70
2023-02-12T16:27:28.488Z,9.70
2023-02-12T16:30:08.733Z,9.70
2023-02-12T16:32:42.043Z,9.60
2023-02-12T16:35:34.358Z,9.60
2023-02-12T16:38:41.971Z,9.60
2023-02-12T16:41:27.099Z,9.60
2023-02-12T16:44:31.753Z,9.60
2023-02-12T16:47:25.758Z,9.60
2023-02-12T16:50:05.592Z,9.50
2023-02-12T16:52:41.822Z,9.50
2023-02-12T16:55:20.839Z,9.50
2023-02-12T16:57:52.334Z,9.50
2023-02-12T17:00:23.995Z,9.50
2023-02-12T17:02:58.649Z,9.40
2023-02-12T17:05:28.740Z,9.40
2023-02-12T17:07:59.126Z,9.40
2023-02-12T17:10:29.306Z,9.40
2023-02-12T17:12:59.579Z,9.40
2023-02-12T17:15:38.195Z,9.40
2023-02-12T17:18:11.435Z,9.40
2023-02-12T17:20:41.890Z,9.40
2023-02-12T17:23:15.520Z,9.40
2023-02-12T17:25:45.619Z,9.40
2023-02-12T17:28:15.728Z,9.30
2023-02-12T17:30:45.853Z,9.30
2023-02-12T17:33:22.719Z,9.30
2023-02-12T17:35:53.019Z,9.40
2023-02-12T17:38:25.402Z,9.40
2023-02-12T17:40:56.657Z,9.30
2023-02-12T17:43:27.045Z,9.30
2023-02-12T17:45:57.340Z,9.30
2023-02-12T17:48:32.628Z,9.30
2023-02-12T17:51:02.721Z,9.20
2023-02-12T17:53:32.764Z,9.20
2023-02-12T17:56:02.907Z,9.30
2023-02-12T17:58:33.111Z,9.30
2023-02-12T18:01:08.698Z,9.30
2023-02-12T18:03:42.049Z,9.20
2023-02-12T18:06:16.346Z,9.20
2023-02-12T18:08:46.712Z,9.20
2023-02-12T18:11:19.025Z,9.30
2023-02-12T18:13:57.164Z,9.20
2023-02-12T18:16:29.629Z,9.20
2023-02-12T18:19:06.541Z,9.20
2023-02-12T18:21:37.281Z,9.10
2023-02-12T18:24:08.808Z,9.10
2023-02-12T18:26:38.991Z,9.20
2023-02-12T18:29:09.163Z,9.20
2023-02-12T18:31:39.571Z,9.20
2023-02-12T18:34:12.385Z,9.30
2023-02-12T18:36:42.529Z,9.30
2023-02-12T18:39:12.597Z,9.30
2023-02-12T18:41:42.986Z,9.30
2023-02-12T18:44:13.186Z,9.30
2023-02-12T18:46:44.526Z,9.30
2023-02-12T18:49:18.049Z,9.30
2023-02-12T18:51:48.133Z,9.30
2023-02-12T18:54:18.521Z,9.30
2023-02-12T18:56:52.256Z,9.30
2023-02-12T18:59:26.913Z,9.30
2023-02-12T19:01:57.908Z,9.30
2023-02-12T19:04:30.987Z,9.30
2023-02-12T19:07:01.000Z,9.20
2023-02-12T19:09:31.044Z,9.20
2023-02-12T19:12:11.072Z,9.10
2023-02-12T19:14:41.206Z,9.10
2023-02-12T19:17:11.272Z,9.10
2023-02-12T19:19:43.988Z,9.10
2023-02-12T19:22:14.212Z,9.10
2023-02-12T19:24:46.944Z,9.10
2023-02-12T19:27:17.972Z,9.10
2023-02-12T19:29:48.251Z,9.10
2023-02-12T19:32:18.410Z,9.10
2023-02-12T19:34:51.281Z,9.10
2023-02-12T19:37:21.373Z,9.00
2023-02-12T19:39:51.556Z,9.00
2023-02-12T19:42:21.742Z,9.00
2023-02-12T19:44:52.110Z,9.10
2023-02-12T19:47:22.269Z,9.00
2023-02-12T19:49:55.015Z,9.00
2023-02-12T19:52:25.094Z,9.00
2023-02-12T19:54:55.572Z,8.90
2023-02-12T19:57:25.638Z,8.90
2023-02-12T19:59:55.765Z,8.90
2023-02-12T20:02:25.868Z,8.90
2023-02-12T20:05:01.097Z,8.90
2023-02-12T20:07:31.149Z,8.90
2023-02-12T20:10:03.767Z,8.90
2023-02-12T20:12:33.847Z,8.90
2023-02-12T20:15:04.318Z,8.90
2023-02-12T20:17:34.464Z,8.90
2023-02-12T20:20:10.310Z,8.90
2023-02-12T20:22:40.464Z,9.00
2023-02-12T20:25:11.252Z,8.90
2023-02-12T20:27:44.289Z,8.80
2023-02-12T20:30:18.596Z,8.80
2023-02-12T20:32:49.480Z,8.80
2023-02-12T20:35:22.144Z,8.80
2023-02-12T20:37:52.201Z,8.80
2023-02-12T20:40:22.531Z,8.80
2023-02-12T20:42:52.614Z,8.80
2023-02-12T20:45:25.064Z,8.80
2023-02-12T20:47:55.267Z,8.80
2023-02-12T20:50:28.046Z,8.80
2023-02-12T20:52:58.305Z,8.80
2023-02-12T20:55:28.426Z,8.80
2023-02-12T20:57:58.536Z,8.80
2023-02-12T21:00:28.734Z,8.70
2023-02-12T21:03:01.482Z,8.70
2023-02-12T21:05:34.330Z,8.70
2023-02-12T21:08:04.411Z,8.70
2023-02-12T21:10:35.248Z,8.70
2023-02-12T21:13:06.714Z,8.70
2023-02-12T21:15:36.938Z,8.80
2023-02-12T21:18:07.383Z,8.80
2023-02-12T21:20:40.012Z,8.80
2023-02-12T21:23:10.113Z,8.70
2023-02-12T21:25:40.145Z,8.70
2023-02-12T21:28:10.388Z,8.80
2023-02-12T21:30:40.433Z,8.80
2023-02-12T21:33:10.681Z,8.70
2023-02-12T21:35:43.406Z,8.80
2023-02-12T21:38:13.492Z,8.70
2023-02-12T21:40:43.675Z,8.70
2023-02-12T21:43:13.836Z,8.70
2023-02-12T21:45:53.367Z,8.70
2023-02-12T21:48:23.521Z,8.70
2023-02-12T21:50:56.468Z,8.60
2023-02-12T21:53:27.615Z,8.70
2023-02-12T21:55:58.231Z,8.70
2023-02-12T21:58:28.712Z,8.70
2023-02-12T22:00:59.224Z,8.60
2023-02-12T22:03:32.071Z,8.60
2023-02-12T22:06:08.826Z,8.60
2023-02-12T22:08:39.829Z,8.60
2023-02-12T22:11:13.437Z,8.60
2023-02-12T22:13:44.655Z,8.50
2023-02-12T22:16:19.064Z,8.60
2023-02-12T22:18:50.737Z,8.60
2023-02-12T22:21:24.044Z,8.50
2023-02-12T22:23:55.183Z,8.50
2023-02-12T22:26:28.640Z,8.50
2023-02-12T22:29:01.255Z,8.60
2023-02-12T22:31:34.124Z,8.60
2023-02-12T22:34:08.275Z,8.50
2023-02-12T22:36:43.020Z,8.50
2023-02-12T22:39:15.442Z,8.50
2023-02-12T22:41:45.559Z,8.50
2023-02-12T22:44:18.912Z,8.50
2023-02-12T22:46:51.353Z,8.50
2023-02-12T22:49:21.737Z,8.50
2023-02-12T22:51:54.440Z,8.50
2023-02-12T22:54:27.637Z,8.50
2023-02-12T22:56:57.680Z,8.50
2023-02-12T22:59:27.974Z,8.50
2023-02-12T23:01:59.275Z,8.50
2023-02-12T23:04:29.383Z,8.50
2023-02-12T23:07:02.085Z,8.50
2023-02-12T23:09:32.631Z,8.50
2023-02-12T23:12:07.523Z,8.50
2023-02-12T23:14:38.246Z,8.50
2023-02-12T23:17:08.362Z,8.40
2023-02-12T23:19:38.432Z,8.40
2023-02-12T23:22:11.141Z,8.50
2023-02-12T23:24:41.279Z,8.50
2023-02-12T23:27:12.928Z,8.50
2023-02-12T23:29:45.621Z,8.50
2023-02-12T23:32:15.838Z,8.40
2023-02-12T23:34:45.914Z,8.40
2023-02-12T23:37:20.777Z,8.40
2023-02-12T23:39:50.994Z,8.40
2023-02-12T23:42:21.082Z,8.40
2023-02-12T23:44:51.198Z,8.50
2023-02-12T23:47:21.260Z,8.50
2023-02-12T23:49:51.306Z,8.40
2023-02-12T23:52:23.969Z,8.40
2023-02-12T23:54:54.193Z,8.30
2023-02-12T23:57:24.246Z,8.30
2023-02-12T23:59:56.479Z,8.40
